Time;durP1;ratioP1;P1;durP2;ratioP2;P2;SDS_P1;SDS_P2;PMS_P1;PMS_P2;Temp;Humidity;BMP_temperature;BMP_pressure;BME280_temperature;BME280_humidity;BME280_pressure;Samples;Min_cycle;Max_cycle;Signal;HPM_P1;HPM_P2
2022/10/30 00:00:56;;;;;;;22.45;12.57;;;;;;;10.16;100.00;99533.72;5002059;28;20039;-49
2022/10/30 00:03:42;;;;;;;47.47;15.07;;;;;;;10.22;100.00;99520.28;4996351;28;20112;-51
2022/10/30 00:06:26;;;;;;;34.25;14.98;;;;;;;10.40;100.00;99528.06;5000684;28;20129;-49
2022/10/30 00:09:11;;;;;;;31.27;15.95;;;;;;;10.46;100.00;99530.34;4999528;28;20053;-51
2022/10/30 00:11:56;;;;;;;27.92;14.55;;;;;;;10.33;100.00;99523.16;5001197;28;20401;-57
2022/10/30 00:14:40;;;;;;;35.92;14.57;;;;;;;10.34;100.00;99522.25;4993390;28;20046;-48
2022/10/30 00:17:24;;;;;;;38.72;11.05;;;;;;;10.22;100.00;99509.81;4999817;28;20058;-56
2022/10/30 00:20:09;;;;;;;23.52;11.75;;;;;;;10.22;100.00;99517.66;5000765;28;20493;-50
2022/10/30 00:22:54;;;;;;;24.42;11.38;;;;;;;10.18;100.00;99524.00;4987909;28;20058;-48
2022/10/30 00:25:38;;;;;;;22.20;12.35;;;;;;;10.37;100.00;99520.38;4994337;28;20058;-47
2022/10/30 00:28:23;;;;;;;27.33;11.60;;;;;;;10.36;100.00;99524.78;4997277;28;20049;-53
2022/10/30 00:31:08;;;;;;;26.77;11.52;;;;;;;10.47;100.00;99526.81;4992940;28;20066;-52
2022/10/30 00:33:54;;;;;;;28.00;12.82;;;;;;;10.60;100.00;99521.72;4991536;28;20091;-48
2022/10/30 00:36:39;;;;;;;25.08;12.48;;;;;;;10.62;100.00;99519.03;4975641;28;20498;-51
2022/10/30 00:39:24;;;;;;;21.38;12.20;;;;;;;10.61;100.00;99514.72;4992609;28;20047;-53
2022/10/30 00:42:12;;;;;;;31.33;12.90;;;;;;;10.68;100.00;99514.28;4996719;28;20054;-49
2022/10/30 00:44:56;;;;;;;28.10;12.38;;;;;;;10.69;100.00;99515.97;4978777;28;20382;-48
2022/10/30 00:47:49;;;;;;;26.15;14.38;;;;;;;10.68;100.00;99508.19;4991908;28;20493;-46
2022/10/30 00:50:36;;;;;;;26.92;13.30;;;;;;;10.55;100.00;99508.91;4974600;28;20046;-53
2022/10/30 00:53:23;;;;;;;27.40;13.50;;;;;;;10.43;100.00;99505.16;4989491;28;20129;-49
2022/10/30 00:56:10;;;;;;;19.92;12.05;;;;;;;10.23;100.00;99503.66;4996575;28;20046;-49
2022/10/30 00:59:08;;;;;;;26.08;12.93;;;;;;;10.15;100.00;99495.38;4970566;28;20470;-53
2022/10/30 01:01:53;;;;;;;21.88;12.15;;;;;;;10.22;100.00;99489.72;4983800;28;20115;-52
2022/10/30 01:04:40;;;;;;;24.98;12.20;;;;;;;10.20;100.00;99488.94;4979633;28;20456;-48
2022/10/30 01:07:24;;;;;;;22.10;11.52;;;;;;;10.35;100.00;99481.16;4972126;28;20054;-51
2022/10/30 01:10:11;;;;;;;25.73;11.82;;;;;;;10.32;100.00;99478.72;4995654;28;20084;-55
2022/10/30 01:12:57;;;;;;;28.45;12.90;;;;;;;10.31;100.00;99472.66;4975912;28;20042;-48
2022/10/30 01:15:55;;;;;;;21.30;12.50;;;;;;;10.41;100.00;99465.09;4991095;28;20050;-47
2022/10/30 01:19:01;;;;;;;32.50;11.98;;;;;;;10.36;100.00;99467.16;4976915;28;20070;-52
2022/10/30 01:21:59;;;;;;;33.53;12.07;;;;;;;10.27;100.00;99460.66;4982510;28;20064;-49
2022/10/30 01:25:03;;;;;;;32.45;12.32;;;;;;;10.21;100.00;99467.09;4977220;28;20046;-48
2022/10/30 01:28:09;;;;;;;35.85;12.30;;;;;;;10.25;100.00;99466.91;4997944;28;20056;-52
2022/10/30 01:31:27;;;;;;;21.48;11.82;;;;;;;10.35;100.00;99462.84;4976032;28;20038;-52
2022/10/30 01:34:43;;;;;;;64.20;11.80;;;;;;;10.17;100.00;99464.69;4994921;28;20053;-51
2022/10/30 01:37:47;;;;;;;31.25;11.00;;;;;;;10.26;100.00;99473.84;4995938;28;20125;-52
2022/10/30 01:40:32;;;;;;;27.52;11.27;;;;;;;10.27;100.00;99478.97;4996838;28;20121;-48
2022/10/30 01:43:16;;;;;;;26.52;11.27;;;;;;;10.46;100.00;99477.97;4992646;28;20049;-53
2022/10/30 01:46:40;;;;;;;20.08;10.48;;;;;;;10.44;100.00;99478.06;4982053;28;20038;-52
2022/10/30 01:49:38;;;;;;;19.42;11.48;;;;;;;10.46;100.00;99485.81;4920652;29;20056;-53
2022/10/30 01:52:46;;;;;;;34.88;10.57;;;;;;;10.26;100.00;99476.44;4915078;29;20138;-53
2022/10/30 01:55:48;;;;;;;19.80;9.43;;;;;;;10.22;100.00;99468.78;4921637;29;20099;-58
2022/10/30 01:58:43;;;;;;;26.85;10.95;;;;;;;10.27;100.00;99458.03;4921826;29;20055;-50
2022/10/30 02:01:32;;;;;;;20.10;9.10;;;;;;;10.27;100.00;99460.66;4910353;29;20126;-46
2022/10/30 02:04:18;;;;;;;40.35;10.75;;;;;;;10.28;100.00;99448.41;4901928;29;20101;-53
2022/10/30 02:07:02;;;;;;;29.10;10.93;;;;;;;10.22;100.00;99447.81;4919186;29;20043;-51
2022/10/30 02:09:51;;;;;;;24.60;11.40;;;;;;;10.28;100.00;99448.41;4914986;29;20044;-53
2022/10/30 02:12:37;;;;;;;25.10;10.88;;;;;;;10.25;100.00;99452.03;4911413;29;20483;-46
2022/10/30 02:15:22;;;;;;;45.75;10.50;;;;;;;10.22;100.00;99445.19;4924695;29;20046;-49
2022/10/30 02:18:07;;;;;;;37.97;11.02;;;;;;;10.33;100.00;99449.00;4925363;29;20056;-51
2022/10/30 02:20:52;;;;;;;27.05;10.75;;;;;;;10.30;100.00;99447.38;4903045;29;20103;-48
2022/10/30 02:23:38;;;;;;;19.55;10.32;;;;;;;10.26;100.00;99447.66;4909137;28;20110;-50
2022/10/30 02:26:23;;;;;;;36.50;10.50;;;;;;;10.23;100.00;99449.50;4993967;28;20038;-48
2022/10/30 02:29:07;;;;;;;31.30;10.52;;;;;;;10.23;100.00;99452.13;4980259;28;20042;-51
2022/10/30 02:31:52;;;;;;;25.40;11.50;;;;;;;10.33;100.00;99436.72;4993910;28;20121;-54
2022/10/30 02:34:37;;;;;;;26.35;10.10;;;;;;;10.36;100.00;99433.09;4974847;28;20034;-54
2022/10/30 02:37:23;;;;;;;48.97;10.80;;;;;;;10.33;100.00;99435.91;4985127;28;20607;-51
2022/10/30 02:40:08;;;;;;;29.42;10.82;;;;;;;10.34;100.00;99434.97;4984021;28;20486;-55
2022/10/30 02:42:54;;;;;;;21.30;10.63;;;;;;;10.52;100.00;99429.63;4978004;28;20077;-52
2022/10/30 02:45:38;;;;;;;20.05;11.35;;;;;;;10.52;100.00;99433.09;4987682;28;20038;-55
2022/10/30 02:48:23;;;;;;;37.33;10.63;;;;;;;10.44;100.00;99435.28;4994496;28;20042;-52
2022/10/30 02:51:07;;;;;;;19.50;9.65;;;;;;;10.28;100.00;99448.41;4995505;28;20085;-48
2022/10/30 02:53:52;;;;;;;60.55;10.50;;;;;;;10.21;100.00;99433.06;4980301;28;20479;-49
2022/10/30 02:56:39;;;;;;;29.80;9.45;;;;;;;10.18;100.00;99440.22;4994758;28;20084;-52
2022/10/30 02:59:24;;;;;;;31.08;9.90;;;;;;;10.18;100.00;99446.31;4978352;28;20046;-51
2022/10/30 03:02:09;;;;;;;52.28;9.45;;;;;;;10.03;100.00;99440.16;4996955;28;20046;-56
2022/10/30 03:04:54;;;;;;;42.30;10.63;;;;;;;10.12;100.00;99446.63;4991048;28;20066;-50
2022/10/30 03:07:39;;;;;;;50.25;9.43;;;;;;;10.07;100.00;99441.66;4996804;28;20047;-55
2022/10/30 03:10:24;;;;;;;44.70;9.50;;;;;;;10.09;100.00;99454.66;4984504;28;20048;-54
2022/10/30 03:13:10;;;;;;;34.35;10.10;;;;;;;10.10;100.00;99451.97;4995995;28;20456;-53
2022/10/30 03:16:02;;;;;;;57.08;10.27;;;;;;;10.07;100.00;99453.94;4998516;28;20042;-53
2022/10/30 03:18:51;;;;;;;19.52;9.70;;;;;;;10.32;100.00;99453.38;4999524;28;20168;-47
2022/10/30 03:21:35;;;;;;;21.63;10.18;;;;;;;10.60;100.00;99451.00;4993428;28;20061;-48
2022/10/30 03:24:20;;;;;;;25.55;10.23;;;;;;;10.57;100.00;99459.88;4998197;28;20046;-50
2022/10/30 03:27:05;;;;;;;45.05;9.68;;;;;;;10.47;100.00;99462.19;4996902;28;20500;-55
2022/10/30 03:29:50;;;;;;;27.80;9.48;;;;;;;10.41;100.00;99459.03;4981514;28;20536;-56
2022/10/30 03:32:35;;;;;;;33.05;9.52;;;;;;;10.42;100.00;99456.31;4994534;28;20171;-50
2022/10/30 03:35:19;;;;;;;20.52;8.18;;;;;;;10.17;100.00;99456.84;4990001;28;20049;-53
2022/10/30 03:38:04;;;;;;;11.73;7.10;;;;;;;10.03;100.00;99460.25;4994430;28;20034;-52
2022/10/30 03:40:50;;;;;;;14.10;8.48;;;;;;;10.18;100.00;99455.94;4997877;28;20034;-50
2022/10/30 03:43:35;;;;;;;10.18;7.35;;;;;;;10.30;100.00;99457.00;4977228;28;20054;-51
2022/10/30 03:46:20;;;;;;;12.98;8.57;;;;;;;10.35;100.00;99454.97;4981152;28;20050;-50
2022/10/30 03:49:07;;;;;;;14.68;6.85;;;;;;;10.15;100.00;99458.72;4995873;28;20482;-52
2022/10/30 03:51:51;;;;;;;12.88;7.85;;;;;;;10.02;100.00;99448.09;4981475;28;20050;-52
2022/10/30 03:54:36;;;;;;;14.80;7.80;;;;;;;10.02;100.00;99459.38;4981706;28;20477;-56
2022/10/30 03:57:21;;;;;;;27.10;8.73;;;;;;;10.10;100.00;99461.59;4989162;28;20041;-56
2022/10/30 04:00:28;;;;;;;12.93;8.50;;;;;;;10.31;100.00;99461.34;4998090;28;20562;-50
2022/10/30 04:03:16;;;;;;;18.98;8.02;;;;;;;10.42;100.00;99458.09;4994802;28;20458;-54
2022/10/30 04:06:02;;;;;;;11.80;7.90;;;;;;;10.48;100.00;99463.00;4989783;28;20069;-53
2022/10/30 04:08:46;;;;;;;11.75;7.65;;;;;;;10.39;100.00;99461.75;4992879;28;20142;-56
2022/10/30 04:11:31;;;;;;;15.63;8.13;;;;;;;10.35;100.00;99462.84;4978701;28;20057;-54
2022/10/30 04:14:16;;;;;;;12.98;8.68;;;;;;;10.53;100.00;99450.50;4990587;28;20073;-51
2022/10/30 04:17:00;;;;;;;15.18;9.35;;;;;;;10.53;100.00;99455.72;4980722;28;20111;-57
2022/10/30 04:19:45;;;;;;;17.65;8.70;;;;;;;10.34;100.00;99448.06;5001714;28;20066;-50
2022/10/30 04:22:31;;;;;;;13.95;7.75;;;;;;;10.29;100.00;99453.56;4988171;28;20429;-56
2022/10/30 04:25:16;;;;;;;20.33;8.00;;;;;;;10.21;100.00;99451.38;4992184;28;20132;-48
2022/10/30 04:28:01;;;;;;;14.40;8.55;;;;;;;10.16;100.00;99456.03;4987076;28;20540;-53
2022/10/30 04:30:46;;;;;;;18.45;9.32;;;;;;;10.38;100.00;99453.97;4997117;28;20398;-53
2022/10/30 04:33:32;;;;;;;18.50;8.30;;;;;;;10.23;100.00;99454.72;4977169;28;20405;-46
2022/10/30 04:36:20;;;;;;;20.58;8.65;;;;;;;10.25;100.00;99456.44;5005304;28;20508;-47
2022/10/30 04:39:05;;;;;;;19.85;8.40;;;;;;;10.20;100.00;99459.31;4996304;28;20043;-48
2022/10/30 04:41:51;;;;;;;17.73;8.55;;;;;;;10.14;100.00;99454.41;4978414;28;20050;-49
2022/10/30 04:44:42;;;;;;;21.90;8.60;;;;;;;10.17;100.00;99452.47;4988280;28;20053;-47
2022/10/30 04:47:29;;;;;;;20.60;9.00;;;;;;;10.13;100.00;99461.44;4996734;28;20050;-49
2022/10/30 04:50:14;;;;;;;16.20;8.55;;;;;;;10.25;100.00;99464.31;4994628;28;20049;-50
2022/10/30 04:53:03;;;;;;;22.70;8.10;;;;;;;10.38;100.00;99470.50;4982447;28;20058;-52
2022/10/30 04:55:52;;;;;;;39.90;8.63;;;;;;;10.35;100.00;99473.31;4978440;28;20413;-52
2022/10/30 04:58:39;;;;;;;22.63;8.75;;;;;;;10.28;100.00;99469.38;4982588;28;20149;-50
2022/10/30 05:01:25;;;;;;;17.38;8.05;;;;;;;10.16;100.00;99469.13;4982661;28;20046;-55
2022/10/30 05:04:11;;;;;;;24.67;8.35;;;;;;;10.22;100.00;99462.69;4976575;28;20044;-48
2022/10/30 05:06:57;;;;;;;14.02;7.45;;;;;;;10.15;100.00;99458.72;4987536;28;20042;-49
2022/10/30 05:09:42;;;;;;;18.98;8.10;;;;;;;10.23;100.00;99459.16;4988651;28;20049;-54
2022/10/30 05:12:26;;;;;;;17.98;8.35;;;;;;;10.23;100.00;99461.78;4979313;28;20089;-52
2022/10/30 05:15:13;;;;;;;18.25;8.07;;;;;;;10.26;100.00;99458.97;4991824;28;20046;-50
2022/10/30 05:17:58;;;;;;;22.70;7.63;;;;;;;10.04;100.00;99457.53;4993179;28;20096;-55
2022/10/30 05:20:45;;;;;;;17.92;7.45;;;;;;;9.98;100.00;99453.50;4993822;28;20500;-55
2022/10/30 05:23:30;;;;;;;22.60;8.13;;;;;;;9.99;100.00;99454.31;4993136;28;20092;-51
2022/10/30 05:26:15;;;;;;;18.02;7.93;;;;;;;9.99;100.00;99456.94;4991161;28;20473;-48
2022/10/30 05:29:00;;;;;;;13.80;7.68;;;;;;;10.06;100.00;99462.69;4996293;28;20077;-56
2022/10/30 05:31:44;;;;;;;16.55;8.35;;;;;;;10.05;100.00;99448.78;4988312;28;20985;-50
2022/10/30 05:34:58;;;;;;;30.73;8.75;;;;;;;9.88;100.00;99448.84;4998608;28;20452;-53
2022/10/30 05:37:43;;;;;;;16.27;8.75;;;;;;;9.92;100.00;99453.00;4993350;28;20087;-52
2022/10/30 05:40:29;;;;;;;14.95;7.47;;;;;;;9.96;100.00;99449.25;4993225;28;20266;-50
2022/10/30 05:43:14;;;;;;;25.25;9.98;;;;;;;10.16;100.00;99457.78;4998955;28;20383;-51
2022/10/30 05:45:59;;;;;;;26.85;10.25;;;;;;;10.13;100.00;99455.34;4987428;28;20125;-49
2022/10/30 05:48:43;;;;;;;31.40;9.48;;;;;;;10.00;100.00;99452.56;4994707;28;20050;-52
2022/10/30 05:51:29;;;;;;;41.97;9.23;;;;;;;9.73;100.00;99449.59;4997906;28;20140;-52
2022/10/30 05:54:20;;;;;;;24.90;10.07;;;;;;;9.97;100.00;99450.97;4982425;28;20050;-49
2022/10/30 05:57:20;;;;;;;12.48;6.30;;;;;;;10.34;100.00;99453.28;4998958;28;20504;-55
2022/10/30 06:00:06;;;;;;;10.70;6.35;;;;;;;11.30;100.00;99467.88;5000172;28;20042;-54
2022/10/30 06:03:05;;;;;;;35.60;11.85;;;;;;;10.63;100.00;99456.06;4993368;28;20054;-55
2022/10/30 06:05:50;;;;;;;26.38;11.80;;;;;;;10.26;100.00;99473.84;4991937;28;20045;-52
2022/10/30 06:08:35;;;;;;;22.25;10.30;;;;;;;10.01;100.00;99481.28;4985795;28;20371;-50
2022/10/30 06:11:32;;;;;;;36.97;11.05;;;;;;;9.91;100.00;99483.53;4983668;28;20034;-50
2022/10/30 06:14:18;;;;;;;23.40;11.20;;;;;;;9.94;100.00;99482.56;4982836;28;20525;-52
2022/10/30 06:17:09;;;;;;;18.33;9.00;;;;;;;10.15;100.00;99482.28;4989364;28;20091;-51
2022/10/30 06:20:08;;;;;;;12.10;7.03;;;;;;;11.01;100.00;99487.97;4995322;28;20067;-52
2022/10/30 06:23:18;;;;;;;23.20;9.90;;;;;;;11.16;100.00;99483.59;4932728;29;20047;-52
2022/10/30 06:26:20;;;;;;;24.52;18.10;;;;;;;11.51;100.00;99501.63;4947988;28;20052;-48
2022/10/30 06:29:10;;;;;;;24.65;13.07;;;;;;;11.53;100.00;99498.91;4927538;28;20423;-51
2022/10/30 06:31:56;;;;;;;18.65;10.60;;;;;;;11.42;100.00;99491.69;4918026;29;20055;-56
2022/10/30 06:34:41;;;;;;;28.20;10.38;;;;;;;10.85;100.00;99486.25;4908951;29;20056;-49
2022/10/30 06:37:29;;;;;;;18.27;9.52;;;;;;;10.78;100.00;99483.16;4927411;29;20056;-48
2022/10/30 06:40:15;;;;;;;15.98;8.82;;;;;;;11.52;100.00;99481.47;4919762;29;20423;-49
2022/10/30 06:43:31;;;;;;;13.88;8.23;;;;;;;11.46;100.00;99475.66;4882844;29;20091;-54
2022/10/30 06:46:22;;;;;;;31.25;10.90;;;;;;;11.15;100.00;99479.28;4883211;29;20048;-51
2022/10/30 06:49:08;;;;;;;13.82;7.97;;;;;;;11.82;100.00;99480.50;4879863;29;20048;-53
2022/10/30 06:51:52;;;;;;;15.10;7.82;;;;;;;12.75;100.00;99472.91;4882005;29;20056;-52
2022/10/30 06:54:37;;;;;;;12.48;7.22;;;;;;;12.97;100.00;99488.13;4880487;29;20127;-50
2022/10/30 06:57:56;;;;;;;14.77;6.93;;;;;;;13.02;100.00;99498.31;4880301;29;20049;-50
2022/10/30 07:01:19;;;;;;;19.00;7.63;;;;;;;12.72;100.00;99512.56;4858961;29;20144;-53
2022/10/30 07:04:17;;;;;;;18.33;7.20;;;;;;;12.95;100.00;99511.03;4861504;29;20202;-55
2022/10/30 07:07:02;;;;;;;13.35;6.35;;;;;;;13.02;100.00;99514.09;4858263;29;20512;-54
2022/10/30 07:09:47;;;;;;;11.27;6.50;;;;;;;13.11;100.00;99521.38;4865681;29;20076;-49
2022/10/30 07:12:33;;;;;;;14.15;6.78;;;;;;;12.86;100.00;99523.00;4868192;29;20136;-50
2022/10/30 07:15:30;;;;;;;20.98;6.70;;;;;;;12.62;100.00;99513.16;4883009;29;20082;-50
2022/10/30 07:18:36;;;;;;;23.10;8.23;;;;;;;12.78;100.00;99506.88;4878940;29;20506;-53
2022/10/30 07:21:21;;;;;;;24.92;10.90;;;;;;;12.24;100.00;99506.81;4919064;29;20091;-48
2022/10/30 07:24:06;;;;;;;15.50;8.23;;;;;;;11.95;100.00;99497.19;4916906;29;20176;-53
2022/10/30 07:26:54;;;;;;;18.55;8.50;;;;;;;12.37;100.00;99501.59;4912515;29;20044;-51
2022/10/30 07:29:59;;;;;;;16.52;7.35;;;;;;;12.96;100.00;99502.19;4897650;29;20341;-53
2022/10/30 07:33:03;;;;;;;18.48;7.70;;;;;;;13.35;100.00;99496.97;4992668;28;20045;-57
2022/10/30 07:36:11;;;;;;;23.75;7.97;;;;;;;12.72;100.00;99489.75;4971162;28;20057;-55
2022/10/30 07:39:09;;;;;;;33.58;9.13;;;;;;;12.80;100.00;99497.13;4998670;28;20046;-56
2022/10/30 07:42:29;;;;;;;18.77;8.00;;;;;;;11.96;100.00;99495.41;4912801;29;20052;-51
2022/10/30 07:45:33;;;;;;;21.52;7.82;;;;;;;12.39;100.00;99491.00;4912083;29;20516;-49
2022/10/30 07:48:36;;;;;;;25.10;10.20;;;;;;;11.75;100.00;99498.41;4898236;29;20077;-53
2022/10/30 07:51:24;;;;;;;30.48;8.90;;;;;;;12.05;100.00;99494.81;4895994;29;20052;-51
2022/10/30 07:54:09;;;;;;;24.92;11.50;;;;;;;11.26;100.00;99508.34;4910748;29;20521;-53
2022/10/30 07:56:57;;;;;;;22.27;9.15;;;;;;;11.58;100.00;99504.72;4930925;29;20479;-56
2022/10/30 08:00:13;;;;;;;19.77;8.43;;;;;;;12.56;100.00;99510.94;4908596;29;20138;-55
2022/10/30 08:02:58;;;;;;;23.83;11.00;;;;;;;12.72;100.00;99500.25;4913555;29;20170;-50
2022/10/30 08:06:05;;;;;;;26.58;9.02;;;;;;;12.84;100.00;99495.97;4912863;29;20633;-57
2022/10/30 08:08:52;;;;;;;23.67;9.75;;;;;;;13.17;100.00;99494.66;4901917;29;20055;-51
2022/10/30 08:11:47;;;;;;;25.58;12.48;;;;;;;12.61;100.00;99498.34;4896072;29;20089;-51
2022/10/30 08:14:33;;;;;;;23.23;9.82;;;;;;;12.73;100.00;99491.41;4887637;29;20051;-64
2022/10/30 08:17:18;;;;;;;18.77;8.55;;;;;;;13.18;100.00;99490.22;4981804;28;20050;-51
2022/10/30 08:20:02;;;;;;;18.48;10.93;;;;;;;12.98;100.00;99496.81;4976214;28;20046;-52
2022/10/30 08:22:51;;;;;;;22.75;8.32;;;;;;;12.61;100.00;99500.97;4990635;28;20120;-56
2022/10/30 08:25:39;;;;;;;23.13;9.60;;;;;;;12.83;100.00;99496.09;4991686;28;20050;-52
2022/10/30 08:28:23;;;;;;;21.42;9.75;;;;;;;12.90;100.00;99505.25;4995194;28;20086;-49
2022/10/30 08:31:08;;;;;;;30.73;10.05;;;;;;;12.75;100.00;99507.09;4994711;28;20073;-60
2022/10/30 08:34:13;;;;;;;17.15;8.10;;;;;;;12.68;100.00;99501.41;4991391;28;20403;-56
2022/10/30 08:37:06;;;;;;;18.13;8.18;;;;;;;13.13;100.00;99505.47;4990950;28;20545;-51
2022/10/30 08:39:53;;;;;;;25.25;10.73;;;;;;;12.89;100.00;99507.00;4979091;28;20096;-40
2022/10/30 08:42:54;;;;;;;22.65;10.93;;;;;;;13.06;100.00;99502.41;4990979;28;20042;-53
2022/10/30 08:45:40;;;;;;;23.40;10.98;;;;;;;13.34;100.00;99503.19;4984615;28;20122;-47
2022/10/30 08:48:27;;;;;;;21.38;10.70;;;;;;;12.98;100.00;99502.94;4990440;28;20092;-49
2022/10/30 08:51:12;;;;;;;25.17;12.23;;;;;;;12.53;100.00;99492.75;4974855;28;20062;-56
2022/10/30 08:54:03;;;;;;;20.47;11.00;;;;;;;12.25;100.00;99492.75;4994353;28;20046;-58
2022/10/30 08:56:47;;;;;;;20.15;10.35;;;;;;;12.32;100.00;99499.28;4991947;28;20680;-56
2022/10/30 08:59:33;;;;;;;25.77;12.65;;;;;;;12.31;100.00;99487.09;4984075;28;20405;-56
2022/10/30 09:02:18;;;;;;;27.38;10.88;;;;;;;13.19;100.00;99494.53;4988577;28;20112;-56
2022/10/30 09:05:21;;;;;;;25.42;12.77;;;;;;;12.96;100.00;99493.47;4987643;28;20069;-54
2022/10/30 09:08:29;;;;;;;21.55;12.93;;;;;;;12.19;100.00;99493.97;4946297;28;20239;-57
2022/10/30 09:11:23;;;;;;;24.83;14.02;;;;;;;12.42;100.00;99485.56;4937201;28;20089;-53
2022/10/30 09:14:08;;;;;;;38.78;14.05;;;;;;;12.49;100.00;99486.00;4947776;28;20502;-53
2022/10/30 09:16:55;;;;;;;32.83;13.35;;;;;;;12.44;100.00;99487.13;4946711;28;20051;-54
2022/10/30 09:19:41;;;;;;;25.25;14.20;;;;;;;12.52;100.00;99494.53;4938079;28;20474;-50
2022/10/30 09:22:27;;;;;;;32.53;14.40;;;;;;;11.81;100.00;99499.84;4943556;28;20075;-50
2022/10/30 09:25:11;;;;;;;26.83;14.38;;;;;;;12.14;100.00;99500.47;4961256;28;20051;-50
2022/10/30 09:28:09;;;;;;;32.63;12.70;;;;;;;12.19;100.00;99509.72;4949143;28;20039;-51
2022/10/30 09:31:14;;;;;;;26.40;14.13;;;;;;;12.17;100.00;99516.88;4952455;28;20055;-51
2022/10/30 09:33:58;;;;;;;30.85;14.05;;;;;;;12.03;100.00;99514.22;4929001;28;20055;-54
2022/10/30 09:37:09;;;;;;;29.10;14.38;;;;;;;12.07;100.00;99510.47;4950119;28;20389;-55
2022/10/30 09:39:55;;;;;;;28.55;15.27;;;;;;;12.21;100.00;99514.06;4951290;28;20395;-49
2022/10/30 09:42:44;;;;;;;30.33;14.48;;;;;;;12.09;100.00;99502.53;4948732;28;20156;-50
2022/10/30 09:45:46;;;;;;;31.88;15.77;;;;;;;12.05;100.00;99497.44;4979246;28;20052;-54
2022/10/30 09:49:04;;;;;;;26.30;12.60;;;;;;;12.37;100.00;99506.03;4991693;28;20074;-53
2022/10/30 09:52:16;;;;;;;32.65;14.75;;;;;;;12.45;100.00;99503.75;4977707;28;20050;-50
2022/10/30 09:55:06;;;;;;;30.58;14.57;;;;;;;12.21;100.00;99493.88;4990270;28;20042;-51
2022/10/30 09:58:12;;;;;;;27.27;14.98;;;;;;;12.05;100.00;99496.59;4999684;28;20042;-49
2022/10/30 10:01:24;;;;;;;31.20;14.55;;;;;;;12.17;100.00;99487.13;4993074;28;20142;-52
2022/10/30 10:04:37;;;;;;;27.23;14.27;;;;;;;12.21;100.00;99493.03;4923696;29;20051;-50
2022/10/30 10:07:36;;;;;;;32.03;15.50;;;;;;;12.01;100.00;99498.56;4923333;29;20059;-61
2022/10/30 10:10:42;;;;;;;26.58;14.82;;;;;;;11.99;100.00;99487.34;4928613;29;20623;-51
2022/10/30 10:13:40;;;;;;;32.13;16.17;;;;;;;12.07;100.00;99492.94;4917734;29;20119;-52
2022/10/30 10:16:32;;;;;;;35.05;16.70;;;;;;;12.04;100.00;99489.66;4930535;29;20058;-51
2022/10/30 10:19:21;;;;;;;32.70;17.35;;;;;;;12.23;100.00;99496.41;4931013;29;20102;-52
2022/10/30 10:22:40;;;;;;;31.60;16.52;;;;;;;12.42;100.00;99491.66;4931720;29;20052;-51
2022/10/30 10:25:26;;;;;;;73.70;54.83;;;;;;;12.74;100.00;99492.28;4931854;29;20046;-54
2022/10/30 10:28:16;;;;;;;38.83;22.20;;;;;;;15.42;100.00;99493.63;4931212;29;20150;-52
2022/10/30 10:31:21;;;;;;;30.73;16.40;;;;;;;14.10;100.00;99501.53;4929816;29;20051;-56
2022/10/30 10:34:11;;;;;;;33.38;17.33;;;;;;;13.33;100.00;99490.13;4928717;29;20075;-49
2022/10/30 10:37:15;;;;;;;31.02;16.92;;;;;;;12.80;100.00;99494.47;4929876;29;20154;-51
2022/10/30 10:40:21;;;;;;;27.13;15.80;;;;;;;12.31;100.00;99494.97;4943611;28;20104;-47
2022/10/30 10:43:29;;;;;;;32.25;16.83;;;;;;;12.32;100.00;99491.41;4994714;28;20057;-52
2022/10/30 10:46:22;;;;;;;29.23;15.07;;;;;;;12.17;100.00;99487.13;4997991;28;20052;-48
2022/10/30 10:49:32;;;;;;;32.42;16.60;;;;;;;12.29;100.00;99480.25;4996642;28;20046;-56
2022/10/30 10:52:23;;;;;;;34.65;17.27;;;;;;;12.49;100.00;99471.06;4999869;28;20500;-52
2022/10/30 10:55:21;;;;;;;29.95;16.80;;;;;;;12.76;100.00;99471.97;4996186;28;20260;-48
2022/10/30 10:58:14;;;;;;;27.90;14.75;;;;;;;12.79;100.00;99464.75;4997501;28;20092;-55
2022/10/30 11:00:59;;;;;;;33.58;16.83;;;;;;;12.77;100.00;99469.25;4995372;28;20050;-52
2022/10/30 11:04:04;;;;;;;33.47;16.70;;;;;;;12.47;100.00;99466.88;4999010;28;20050;-53
2022/10/30 11:06:52;;;;;;;32.78;16.52;;;;;;;12.64;100.00;99458.72;4998860;28;20136;-58
2022/10/30 11:09:37;;;;;;;42.95;18.02;;;;;;;12.54;100.00;99455.84;4997659;28;20061;-49
2022/10/30 11:12:30;;;;;;;55.33;22.83;;;;;;;16.10;100.00;99449.66;4996649;28;20137;-41
2022/10/30 11:15:15;;;;;;;48.15;22.98;;;;;;;18.15;100.00;99449.25;4971814;28;20102;-39
2022/10/30 11:18:06;;;;;;;37.45;18.42;;;;;;;18.40;100.00;99452.34;5000237;28;20049;-38
2022/10/30 11:20:59;;;;;;;29.05;16.60;;;;;;;16.75;94.69;99448.78;4992453;28;20038;-53
2022/10/30 11:23:46;;;;;;;29.85;15.68;;;;;;;14.64;100.00;99447.50;4993377;28;20073;-58
2022/10/30 11:26:32;;;;;;;29.67;17.10;;;;;;;13.84;100.00;99452.38;5000351;28;20062;-50
2022/10/30 11:29:23;;;;;;;35.63;18.10;;;;;;;13.74;100.00;99456.63;4993524;28;20066;-55
2022/10/30 11:32:19;;;;;;;29.58;16.45;;;;;;;13.40;100.00;99462.44;4997005;28;20399;-53
2022/10/30 11:35:06;;;;;;;34.33;16.98;;;;;;;13.57;100.00;99460.44;4996617;28;20046;-51
2022/10/30 11:38:13;;;;;;;34.53;17.42;;;;;;;13.42;100.00;99458.75;4992718;28;20149;-54
2022/10/30 11:41:00;;;;;;;29.50;16.55;;;;;;;13.05;100.00;99456.03;4997012;28;20196;-54
2022/10/30 11:43:46;;;;;;;35.00;17.73;;;;;;;12.81;100.00;99448.88;4994922;28;20038;-54
2022/10/30 11:46:34;;;;;;;34.05;18.02;;;;;;;12.99;100.00;99449.38;4995836;28;20128;-59
2022/10/30 11:49:31;;;;;;;32.50;17.23;;;;;;;12.78;100.00;99449.03;4994485;28;20068;-55
2022/10/30 11:52:19;;;;;;;37.58;18.40;;;;;;;12.53;100.00;99445.44;4991927;28;20054;-51
2022/10/30 11:55:17;;;;;;;33.90;17.88;;;;;;;12.77;100.00;99445.59;4976365;28;20121;-53
2022/10/30 11:58:04;;;;;;;35.40;17.80;;;;;;;12.75;100.00;99444.00;4966201;28;21511;-52
2022/10/30 12:01:11;;;;;;;36.58;17.90;;;;;;;12.73;100.00;99432.75;4997373;28;20478;-52
2022/10/30 12:04:13;;;;;;;37.00;17.92;;;;;;;12.74;100.00;99442.31;4988803;28;20520;-53
2022/10/30 12:07:08;;;;;;;39.30;20.63;;;;;;;12.48;100.00;99444.91;4993523;28;20140;-48
2022/10/30 12:09:53;;;;;;;40.70;19.13;;;;;;;12.34;100.00;99451.88;5001375;28;20072;-50
2022/10/30 12:12:41;;;;;;;41.72;19.75;;;;;;;12.40;100.00;99440.97;4993572;28;20561;-52
2022/10/30 12:15:26;;;;;;;39.83;20.08;;;;;;;12.17;100.00;99453.84;4992505;28;20435;-52
2022/10/30 12:18:26;;;;;;;39.30;19.48;;;;;;;12.37;100.00;99451.69;4995152;28;20091;-52
2022/10/30 12:21:17;;;;;;;35.25;18.55;;;;;;;12.11;100.00;99451.59;4997928;28;20125;-60
2022/10/30 12:24:06;;;;;;;36.25;17.95;;;;;;;12.65;100.00;99439.34;4993439;28;20089;-51
2022/10/30 12:26:54;;;;;;;35.47;18.13;;;;;;;12.27;100.00;99435.69;4985772;28;20053;-48
2022/10/30 12:29:59;;;;;;;35.90;18.15;;;;;;;12.11;100.00;99448.97;4960496;28;20142;-48
2022/10/30 12:32:52;;;;;;;35.60;18.17;;;;;;;12.16;100.00;99441.63;4979690;28;20046;-49
2022/10/30 12:35:58;;;;;;;40.63;19.98;;;;;;;12.34;100.00;99441.38;4991466;28;20054;-51
2022/10/30 12:38:48;;;;;;;43.17;19.88;;;;;;;12.52;100.00;99435.84;4998172;28;20089;-50
2022/10/30 12:41:52;;;;;;;38.60;18.00;;;;;;;12.49;100.00;99426.41;4996029;28;20057;-48
2022/10/30 12:44:49;;;;;;;39.00;18.90;;;;;;;12.47;100.00;99417.75;4990910;28;20042;-48
2022/10/30 12:48:01;;;;;;;39.53;20.10;;;;;;;12.28;100.00;99413.75;4987605;28;20056;-51
2022/10/30 12:51:10;;;;;;;;;;;;;;;12.38;100.00;99421.00;4989482;28;20536;-53
2022/10/30 12:54:01;;;;;;;38.63;19.50;;;;;;;12.08;100.00;99422.91;4992023;28;19959;-49
2022/10/30 12:56:52;;;;;;;46.33;21.50;;;;;;;12.35;100.00;99419.44;4995296;28;20046;-48
2022/10/30 12:59:55;;;;;;;40.80;19.90;;;;;;;12.11;100.00;99414.00;4980462;28;20054;-57
2022/10/30 13:02:59;;;;;;;40.80;20.27;;;;;;;12.38;100.00;99411.34;4966207;28;20076;-48